sensor_id;sensor_type;location;lat;lon;timestamp;pressure;altitude;pressure_sealevel;temperature;humidity
59531;BME280;45349;48.692;8.186;2023-02-18T00:00:26;99743.63;;;11.52;88.28
59531;BME280;45349;48.692;8.186;2023-02-18T00:02:52;99730.97;;;11.58;87.80
59531;BME280;45349;48.692;8.186;2023-02-18T00:05:21;99739.53;;;11.60;87.46
59531;BME280;45349;48.692;8.186;2023-02-18T00:07:47;99738.13;;;11.56;88.21
59531;BME280;45349;48.692;8.186;2023-02-18T00:10:14;99740.03;;;11.54;88.03
59531;BME280;45349;48.692;8.186;2023-02-18T00:12:43;99732.09;;;11.55;87.84
59531;BME280;45349;48.692;8.186;2023-02-18T00:15:09;99734.44;;;11.58;87.58
59531;BME280;45349;48.692;8.186;2023-02-18T00:17:36;99739.94;;;11.55;87.85
59531;BME280;45349;48.692;8.186;2023-02-18T00:20:04;99739.78;;;11.57;88.09
59531;BME280;45349;48.692;8.186;2023-02-18T00:22:31;99734.69;;;11.55;87.92
59531;BME280;45349;48.692;8.186;2023-02-18T00:24:58;99724.63;;;11.50;88.49
59531;BME280;45349;48.692;8.186;2023-02-18T00:27:24;99725.75;;;11.58;87.55
59531;BME280;45349;48.692;8.186;2023-02-18T00:29:52;99740.88;;;11.54;87.73
59531;BME280;45349;48.692;8.186;2023-02-18T00:32:19;99725.19;;;11.54;87.73
59531;BME280;45349;48.692;8.186;2023-02-18T00:34:45;99716.50;;;11.54;87.67
59531;BME280;45349;48.692;8.186;2023-02-18T00:37:12;99723.97;;;11.58;87.11
59531;BME280;45349;48.692;8.186;2023-02-18T00:39:39;99725.31;;;11.52;87.61
59531;BME280;45349;48.692;8.186;2023-02-18T00:42:05;99719.56;;;11.59;87.09
59531;BME280;45349;48.692;8.186;2023-02-18T00:44:32;99708.16;;;11.60;87.04
59531;BME280;45349;48.692;8.186;2023-02-18T00:47:00;99704.47;;;11.62;86.12
59531;BME280;45349;48.692;8.186;2023-02-18T00:49:26;99701.16;;;11.60;85.94
59531;BME280;45349;48.692;8.186;2023-02-18T00:51:54;99709.69;;;11.62;86.14
59531;BME280;45349;48.692;8.186;2023-02-18T00:54:20;99693.75;;;11.65;85.68
59531;BME280;45349;48.692;8.186;2023-02-18T00:56:49;99711.34;;;11.63;85.70
59531;BME280;45349;48.692;8.186;2023-02-18T00:59:15;99700.47;;;11.68;84.73
59531;BME280;45349;48.692;8.186;2023-02-18T01:01:42;99708.84;;;11.62;85.22
59531;BME280;45349;48.692;8.186;2023-02-18T01:04:10;99703.34;;;11.65;84.43
59531;BME280;45349;48.692;8.186;2023-02-18T01:06:37;99704.47;;;11.62;84.99
59531;BME280;45349;48.692;8.186;2023-02-18T01:09:04;99707.78;;;11.64;84.58
59531;BME280;45349;48.692;8.186;2023-02-18T01:11:31;99704.06;;;11.77;84.04
59531;BME280;45349;48.692;8.186;2023-02-18T01:13:58;99693.88;;;11.74;84.42
59531;BME280;45349;48.692;8.186;2023-02-18T01:16:24;99699.00;;;11.75;84.28
59531;BME280;45349;48.692;8.186;2023-02-18T01:18:51;99704.59;;;11.71;84.77
59531;BME280;45349;48.692;8.186;2023-02-18T01:21:19;99693.44;;;11.69;84.83
59531;BME280;45349;48.692;8.186;2023-02-18T01:23:46;99686.44;;;11.69;85.25
59531;BME280;45349;48.692;8.186;2023-02-18T01:26:15;99689.47;;;11.64;85.56
59531;BME280;45349;48.692;8.186;2023-02-18T01:28:41;99686.84;;;11.64;85.97
59531;BME280;45349;48.692;8.186;2023-02-18T01:31:09;99696.47;;;11.64;86.41
59531;BME280;45349;48.692;8.186;2023-02-18T01:33:37;99686.28;;;11.71;86.17
59531;BME280;45349;48.692;8.186;2023-02-18T01:36:04;99682.44;;;11.65;86.36
59531;BME280;45349;48.692;8.186;2023-02-18T01:38:33;99706.38;;;11.60;86.41
59531;BME280;45349;48.692;8.186;2023-02-18T01:40:59;99692.19;;;11.63;85.75
59531;BME280;45349;48.692;8.186;2023-02-18T01:43:27;99685.47;;;11.60;86.44
59531;BME280;45349;48.692;8.186;2023-02-18T01:46:01;99677.34;;;11.63;86.43
59531;BME280;45349;48.692;8.186;2023-02-18T01:48:31;99681.03;;;11.61;86.18
59531;BME280;45349;48.692;8.186;2023-02-18T01:51:02;99676.34;;;11.55;86.56
59531;BME280;45349;48.692;8.186;2023-02-18T01:53:34;99688.84;;;11.51;87.56
59531;BME280;45349;48.692;8.186;2023-02-18T01:56:05;99675.78;;;11.51;86.91
59531;BME280;45349;48.692;8.186;2023-02-18T01:58:33;99679.78;;;11.55;87.00
59531;BME280;45349;48.692;8.186;2023-02-18T02:01:01;99683.38;;;11.54;87.12
59531;BME280;45349;48.692;8.186;2023-02-18T02:03:27;99692.28;;;11.51;87.23
59531;BME280;45349;48.692;8.186;2023-02-18T02:05:54;99671.94;;;11.55;86.99
59531;BME280;45349;48.692;8.186;2023-02-18T02:08:20;99680.16;;;11.50;87.27
59531;BME280;45349;48.692;8.186;2023-02-18T02:11:01;99672.22;;;11.52;87.14
59531;BME280;45349;48.692;8.186;2023-02-18T02:13:51;99674.94;;;11.50;87.24
59531;BME280;45349;48.692;8.186;2023-02-18T02:16:27;99675.53;;;11.54;86.25
59531;BME280;45349;48.692;8.186;2023-02-18T02:19:01;99674.69;;;11.54;86.75
59531;BME280;45349;48.692;8.186;2023-02-18T02:22:09;99668.75;;;11.51;86.81
59531;BME280;45349;48.692;8.186;2023-02-18T02:24:57;99675.09;;;11.49;87.29
59531;BME280;45349;48.692;8.186;2023-02-18T02:27:39;99674.13;;;11.50;87.08
59531;BME280;45349;48.692;8.186;2023-02-18T02:33:23;99672.47;;;11.49;87.29
59531;BME280;45349;48.692;8.186;2023-02-18T02:35:59;99674.66;;;11.44;87.23
59531;BME280;45349;48.692;8.186;2023-02-18T02:38:33;99671.78;;;11.47;87.23
59531;BME280;45349;48.692;8.186;2023-02-18T02:41:11;99657.31;;;11.43;87.53
59531;BME280;45349;48.692;8.186;2023-02-18T02:43:49;99677.97;;;11.46;87.19
59531;BME280;45349;48.692;8.186;2023-02-18T02:46:20;99661.16;;;11.48;86.10
59531;BME280;45349;48.692;8.186;2023-02-18T02:48:56;99661.75;;;11.52;86.61
59531;BME280;45349;48.692;8.186;2023-02-18T02:51:30;99668.06;;;11.49;86.83
59531;BME280;45349;48.692;8.186;2023-02-18T02:54:09;99657.75;;;11.48;86.35
59531;BME280;45349;48.692;8.186;2023-02-18T02:56:37;99671.25;;;11.53;85.85
59531;BME280;45349;48.692;8.186;2023-02-18T02:59:06;99659.84;;;11.54;85.99
59531;BME280;45349;48.692;8.186;2023-02-18T03:01:47;99661.06;;;11.50;85.95
59531;BME280;45349;48.692;8.186;2023-02-18T03:04:29;99645.38;;;11.50;85.51
59531;BME280;45349;48.692;8.186;2023-02-18T03:10:07;99640.41;;;11.47;85.74
59531;BME280;45349;48.692;8.186;2023-02-18T03:12:43;99638.59;;;11.47;85.77
59531;BME280;45349;48.692;8.186;2023-02-18T03:15:19;99632.28;;;11.50;85.20
59531;BME280;45349;48.692;8.186;2023-02-18T03:17:53;99642.31;;;11.45;86.08
59531;BME280;45349;48.692;8.186;2023-02-18T03:20:25;99624.81;;;11.45;84.98
59531;BME280;45349;48.692;8.186;2023-02-18T03:22:54;99626.75;;;11.43;85.40
59531;BME280;45349;48.692;8.186;2023-02-18T03:25:23;99616.44;;;11.42;85.97
59531;BME280;45349;48.692;8.186;2023-02-18T03:27:52;99620.97;;;11.40;85.99
59531;BME280;45349;48.692;8.186;2023-02-18T03:30:24;99608.97;;;11.37;86.35
59531;BME280;45349;48.692;8.186;2023-02-18T03:32:55;99602.22;;;11.34;86.14
59531;BME280;45349;48.692;8.186;2023-02-18T03:35:23;99607.47;;;11.34;85.83
59531;BME280;45349;48.692;8.186;2023-02-18T03:37:55;99592.59;;;11.35;86.06
59531;BME280;45349;48.692;8.186;2023-02-18T03:40:26;99594.81;;;11.40;84.74
59531;BME280;45349;48.692;8.186;2023-02-18T03:42:55;99589.63;;;11.49;84.57
59531;BME280;45349;48.692;8.186;2023-02-18T03:45:22;99592.22;;;11.49;84.65
59531;BME280;45349;48.692;8.186;2023-02-18T03:47:48;99597.19;;;11.52;84.79
59531;BME280;45349;48.692;8.186;2023-02-18T03:50:15;99593.75;;;11.52;85.37
59531;BME280;45349;48.692;8.186;2023-02-18T03:52:42;99589.63;;;11.49;85.22
59531;BME280;45349;48.692;8.186;2023-02-18T03:55:10;99589.88;;;11.46;85.72
59531;BME280;45349;48.692;8.186;2023-02-18T03:57:37;99587.97;;;11.48;85.21
59531;BME280;45349;48.692;8.186;2023-02-18T04:00:05;99588.38;;;11.44;85.84
59531;BME280;45349;48.692;8.186;2023-02-18T04:02:38;99568.41;;;11.43;85.89
59531;BME280;45349;48.692;8.186;2023-02-18T04:05:06;99579.56;;;11.45;86.43
59531;BME280;45349;48.692;8.186;2023-02-18T04:07:32;99594.56;;;11.43;86.28
59531;BME280;45349;48.692;8.186;2023-02-18T04:09:59;99573.38;;;11.46;85.98
59531;BME280;45349;48.692;8.186;2023-02-18T04:12:27;99575.03;;;11.47;86.02
59531;BME280;45349;48.692;8.186;2023-02-18T04:14:53;99571.47;;;11.48;86.25
59531;BME280;45349;48.692;8.186;2023-02-18T04:17:20;99585.63;;;11.45;86.63
59531;BME280;45349;48.692;8.186;2023-02-18T04:19:46;99585.06;;;11.42;86.69
59531;BME280;45349;48.692;8.186;2023-02-18T04:22:13;99590.66;;;11.37;87.38
59531;BME280;45349;48.692;8.186;2023-02-18T04:24:40;99593.88;;;11.41;87.06
59531;BME280;45349;48.692;8.186;2023-02-18T04:27:06;99610.78;;;11.36;88.35
59531;BME280;45349;48.692;8.186;2023-02-18T04:29:34;99605.53;;;11.36;87.96
59531;BME280;45349;48.692;8.186;2023-02-18T04:32:01;99608.00;;;11.38;88.16
59531;BME280;45349;48.692;8.186;2023-02-18T04:34:27;99605.28;;;11.40;88.25
59531;BME280;45349;48.692;8.186;2023-02-18T04:36:54;99603.88;;;11.35;88.84
59531;BME280;45349;48.692;8.186;2023-02-18T04:39:21;99603.88;;;11.35;88.71
59531;BME280;45349;48.692;8.186;2023-02-18T04:41:48;99612.44;;;11.37;89.34
59531;BME280;45349;48.692;8.186;2023-02-18T04:44:14;99621.59;;;11.32;89.47
59531;BME280;45349;48.692;8.186;2023-02-18T04:46:42;99615.25;;;11.25;89.96
59531;BME280;45349;48.692;8.186;2023-02-18T04:49:09;99585.84;;;11.32;89.26
59531;BME280;45349;48.692;8.186;2023-02-18T04:51:35;99588.72;;;11.29;89.52
59531;BME280;45349;48.692;8.186;2023-02-18T04:54:02;99601.78;;;11.29;89.43
59531;BME280;45349;48.692;8.186;2023-02-18T04:56:29;99590.50;;;11.29;89.42
59531;BME280;45349;48.692;8.186;2023-02-18T04:58:56;99593.00;;;11.30;89.64
59531;BME280;45349;48.692;8.186;2023-02-18T05:01:22;99594.91;;;11.28;89.65
59531;BME280;45349;48.692;8.186;2023-02-18T05:03:51;99575.50;;;11.31;89.09
59531;BME280;45349;48.692;8.186;2023-02-18T05:06:17;99577.06;;;11.33;89.33
59531;BME280;45349;48.692;8.186;2023-02-18T05:08:44;99578.13;;;11.31;89.21
59531;BME280;45349;48.692;8.186;2023-02-18T05:11:10;99583.25;;;11.32;89.23
59531;BME280;45349;48.692;8.186;2023-02-18T05:13:37;99579.09;;;11.30;89.00
59531;BME280;45349;48.692;8.186;2023-02-18T05:16:04;99587.88;;;11.29;88.87
59531;BME280;45349;48.692;8.186;2023-02-18T05:18:30;99567.69;;;11.31;88.80
59531;BME280;45349;48.692;8.186;2023-02-18T05:20:58;99575.25;;;11.34;88.60
59531;BME280;45349;48.692;8.186;2023-02-18T05:23:25;99572.09;;;11.30;89.21
59531;BME280;45349;48.692;8.186;2023-02-18T05:25:51;99557.63;;;11.26;89.49
59531;BME280;45349;48.692;8.186;2023-02-18T05:28:18;99568.09;;;11.26;88.71
59531;BME280;45349;48.692;8.186;2023-02-18T05:30:44;99576.22;;;11.33;87.79
59531;BME280;45349;48.692;8.186;2023-02-18T05:33:11;99566.34;;;11.36;86.93
59531;BME280;45349;48.692;8.186;2023-02-18T05:35:38;99569.66;;;11.39;86.80
59531;BME280;45349;48.692;8.186;2023-02-18T05:38:06;99560.56;;;11.43;85.97
59531;BME280;45349;48.692;8.186;2023-02-18T05:40:32;99551.63;;;11.45;86.13
59531;BME280;45349;48.692;8.186;2023-02-18T05:42:59;99565.66;;;11.44;85.86
59531;BME280;45349;48.692;8.186;2023-02-18T05:45:25;99547.34;;;11.44;85.33
59531;BME280;45349;48.692;8.186;2023-02-18T05:47:52;99546.53;;;11.44;85.35
59531;BME280;45349;48.692;8.186;2023-02-18T05:50:19;99558.91;;;11.42;85.45
59531;BME280;45349;48.692;8.186;2023-02-18T05:52:45;99556.59;;;11.48;84.50
59531;BME280;45349;48.692;8.186;2023-02-18T05:55:13;99557.69;;;11.46;85.14
59531;BME280;45349;48.692;8.186;2023-02-18T05:57:40;99559.34;;;11.47;84.27
59531;BME280;45349;48.692;8.186;2023-02-18T06:00:07;99564.16;;;11.51;84.21
59531;BME280;45349;48.692;8.186;2023-02-18T06:02:34;99559.78;;;11.52;84.58
59531;BME280;45349;48.692;8.186;2023-02-18T06:05:01;99562.38;;;11.52;84.69
59531;BME280;45349;48.692;8.186;2023-02-18T06:07:27;99555.50;;;11.51;84.88
59531;BME280;45349;48.692;8.186;2023-02-18T06:09:54;99547.94;;;11.48;84.95
59531;BME280;45349;48.692;8.186;2023-02-18T06:12:22;99561.13;;;11.46;84.82
59531;BME280;45349;48.692;8.186;2023-02-18T06:14:48;99570.50;;;11.49;84.44
59531;BME280;45349;48.692;8.186;2023-02-18T06:17:15;99566.22;;;11.48;84.56
59531;BME280;45349;48.692;8.186;2023-02-18T06:19:43;99570.50;;;11.49;83.90
59531;BME280;45349;48.692;8.186;2023-02-18T06:22:10;99576.69;;;11.48;84.45
59531;BME280;45349;48.692;8.186;2023-02-18T06:24:37;99563.91;;;11.55;83.27
59531;BME280;45349;48.692;8.186;2023-02-18T06:27:03;99574.34;;;11.55;83.12
59531;BME280;45349;48.692;8.186;2023-02-18T06:29:32;99573.41;;;11.56;82.77
59531;BME280;45349;48.692;8.186;2023-02-18T06:32:00;99603.81;;;11.57;82.54
59531;BME280;45349;48.692;8.186;2023-02-18T06:34:26;99569.81;;;11.66;81.54
59531;BME280;45349;48.692;8.186;2023-02-18T06:36:53;99578.25;;;11.60;81.62
59531;BME280;45349;48.692;8.186;2023-02-18T06:39:20;99553.59;;;11.63;81.34
59531;BME280;45349;48.692;8.186;2023-02-18T06:41:46;99571.34;;;11.59;81.55
59531;BME280;45349;48.692;8.186;2023-02-18T06:44:13;99565.44;;;11.57;81.52
59531;BME280;45349;48.692;8.186;2023-02-18T06:46:43;99586.34;;;11.57;81.74
59531;BME280;45349;48.692;8.186;2023-02-18T06:49:09;99578.78;;;11.54;81.89
59531;BME280;45349;48.692;8.186;2023-02-18T06:51:36;99597.06;;;11.54;81.67
59531;BME280;45349;48.692;8.186;2023-02-18T06:54:03;99592.41;;;11.58;81.96
59531;BME280;45349;48.692;8.186;2023-02-18T06:56:31;99588.00;;;11.58;81.40
59531;BME280;45349;48.692;8.186;2023-02-18T06:58:57;99584.28;;;11.61;81.69
59531;BME280;45349;48.692;8.186;2023-02-18T07:01:24;99589.50;;;11.61;81.85
59531;BME280;45349;48.692;8.186;2023-02-18T07:03:52;99584.81;;;11.55;82.51
59531;BME280;45349;48.692;8.186;2023-02-18T07:06:18;99593.22;;;11.58;82.48
59531;BME280;45349;48.692;8.186;2023-02-18T07:08:45;99592.81;;;11.53;83.00
59531;BME280;45349;48.692;8.186;2023-02-18T07:11:11;99572.59;;;11.55;82.39
59531;BME280;45349;48.692;8.186;2023-02-18T07:13:38;99587.16;;;11.58;82.47
59531;BME280;45349;48.692;8.186;2023-02-18T07:16:05;99588.28;;;11.55;82.28
59531;BME280;45349;48.692;8.186;2023-02-18T07:18:31;99600.13;;;11.59;82.47
59531;BME280;45349;48.692;8.186;2023-02-18T07:20:59;99603.00;;;11.56;82.84
59531;BME280;45349;48.692;8.186;2023-02-18T07:23:26;99588.81;;;11.59;82.44
59531;BME280;45349;48.692;8.186;2023-02-18T07:26:02;99612.50;;;11.57;82.55
59531;BME280;45349;48.692;8.186;2023-02-18T07:28:28;99595.44;;;11.63;82.54
59531;BME280;45349;48.692;8.186;2023-02-18T07:30:55;99579.47;;;11.66;81.95
59531;BME280;45349;48.692;8.186;2023-02-18T07:33:21;99599.59;;;11.65;82.60
59531;BME280;45349;48.692;8.186;2023-02-18T07:35:52;99577.03;;;11.74;81.58
59531;BME280;45349;48.692;8.186;2023-02-18T07:38:20;99561.97;;;11.66;82.07
59531;BME280;45349;48.692;8.186;2023-02-18T07:40:47;99587.88;;;11.70;81.88
59531;BME280;45349;48.692;8.186;2023-02-18T07:43:14;99576.16;;;11.64;82.38
59531;BME280;45349;48.692;8.186;2023-02-18T07:45:40;99559.38;;;11.66;81.96
59531;BME280;45349;48.692;8.186;2023-02-18T07:48:07;99569.97;;;11.65;82.03
59531;BME280;45349;48.692;8.186;2023-02-18T07:50:33;99548.63;;;11.70;81.65
59531;BME280;45349;48.692;8.186;2023-02-18T07:53:02;99565.28;;;11.69;81.91
59531;BME280;45349;48.692;8.186;2023-02-18T07:55:30;99562.28;;;11.63;82.43
59531;BME280;45349;48.692;8.186;2023-02-18T07:58:11;99557.06;;;11.63;82.44
59531;BME280;45349;48.692;8.186;2023-02-18T08:00:37;99557.59;;;11.67;81.86
59531;BME280;45349;48.692;8.186;2023-02-18T08:03:04;99565.72;;;11.74;81.70
59531;BME280;45349;48.692;8.186;2023-02-18T08:05:31;99572.88;;;11.72;81.94
59531;BME280;45349;48.692;8.186;2023-02-18T08:07:57;99566.72;;;11.82;81.26
59531;BME280;45349;48.692;8.186;2023-02-18T08:10:24;99560.38;;;11.75;81.15
59531;BME280;45349;48.692;8.186;2023-02-18T08:12:52;99576.59;;;11.79;81.32
59531;BME280;45349;48.692;8.186;2023-02-18T08:15:19;99575.53;;;11.81;81.22
59531;BME280;45349;48.692;8.186;2023-02-18T08:17:45;99550.31;;;11.80;81.34
59531;BME280;45349;48.692;8.186;2023-02-18T08:20:12;99566.44;;;11.86;81.22
59531;BME280;45349;48.692;8.186;2023-02-18T08:22:39;99567.81;;;11.90;81.48
59531;BME280;45349;48.692;8.186;2023-02-18T08:25:05;99565.75;;;11.93;81.51
59531;BME280;45349;48.692;8.186;2023-02-18T08:27:32;99572.34;;;11.98;81.33
59531;BME280;45349;48.692;8.186;2023-02-18T08:30:00;99579.84;;;12.02;80.89
59531;BME280;45349;48.692;8.186;2023-02-18T08:32:27;99584.81;;;12.05;80.60
59531;BME280;45349;48.692;8.186;2023-02-18T08:34:54;99582.88;;;12.07;80.58
59531;BME280;45349;48.692;8.186;2023-02-18T08:37:21;99580.41;;;12.16;80.71
59531;BME280;45349;48.692;8.186;2023-02-18T08:39:48;99584.53;;;12.18;80.35
59531;BME280;45349;48.692;8.186;2023-02-18T08:42:14;99586.44;;;12.16;80.32
59531;BME280;45349;48.692;8.186;2023-02-18T08:44:41;99571.56;;;12.07;81.31
59531;BME280;45349;48.692;8.186;2023-02-18T08:47:09;99593.06;;;12.01;81.60
59531;BME280;45349;48.692;8.186;2023-02-18T08:49:36;99584.38;;;12.10;81.15
59531;BME280;45349;48.692;8.186;2023-02-18T08:52:03;99592.38;;;12.18;81.08
59531;BME280;45349;48.692;8.186;2023-02-18T08:54:30;99571.31;;;12.30;80.30
59531;BME280;45349;48.692;8.186;2023-02-18T08:56:56;99571.00;;;12.23;81.18
59531;BME280;45349;48.692;8.186;2023-02-18T08:59:23;99565.53;;;12.16;81.44
59531;BME280;45349;48.692;8.186;2023-02-18T09:01:50;99556.69;;;12.17;81.50
59531;BME280;45349;48.692;8.186;2023-02-18T09:04:18;99572.53;;;12.25;81.34
59531;BME280;45349;48.692;8.186;2023-02-18T09:06:46;99583.84;;;12.06;82.23
59531;BME280;45349;48.692;8.186;2023-02-18T09:09:14;99566.34;;;12.07;82.61
59531;BME280;45349;48.692;8.186;2023-02-18T09:11:41;99580.81;;;12.11;82.58
59531;BME280;45349;48.692;8.186;2023-02-18T09:14:07;99576.94;;;12.25;81.80
59531;BME280;45349;48.692;8.186;2023-02-18T09:16:34;99555.19;;;12.24;81.85
59531;BME280;45349;48.692;8.186;2023-02-18T09:19:03;99577.63;;;12.27;82.04
59531;BME280;45349;48.692;8.186;2023-02-18T09:21:31;99564.41;;;12.29;80.54
59531;BME280;45349;48.692;8.186;2023-02-18T09:23:58;99562.59;;;12.29;81.12
59531;BME280;45349;48.692;8.186;2023-02-18T09:26:25;99572.25;;;12.09;82.13
59531;BME280;45349;48.692;8.186;2023-02-18T09:28:52;99557.53;;;12.08;82.22
59531;BME280;45349;48.692;8.186;2023-02-18T09:31:21;99556.84;;;12.06;82.43
59531;BME280;45349;48.692;8.186;2023-02-18T09:33:50;99559.19;;;12.19;81.36
59531;BME280;45349;48.692;8.186;2023-02-18T09:36:18;99527.63;;;12.20;81.22
59531;BME280;45349;48.692;8.186;2023-02-18T09:38:46;99538.22;;;12.48;80.47
59531;BME280;45349;48.692;8.186;2023-02-18T09:41:23;99529.25;;;12.51;79.47
59531;BME280;45349;48.692;8.186;2023-02-18T09:43:54;99524.41;;;12.66;79.34
59531;BME280;45349;48.692;8.186;2023-02-18T09:46:25;99528.38;;;12.60;78.33
59531;BME280;45349;48.692;8.186;2023-02-18T09:48:54;99532.06;;;12.77;77.02
59531;BME280;45349;48.692;8.186;2023-02-18T09:51:21;99536.25;;;12.70;77.76
59531;BME280;45349;48.692;8.186;2023-02-18T09:53:49;99529.41;;;12.87;76.36
59531;BME280;45349;48.692;8.186;2023-02-18T09:56:19;99529.25;;;12.89;76.74
59531;BME280;45349;48.692;8.186;2023-02-18T09:58:48;99539.75;;;12.89;76.31
59531;BME280;45349;48.692;8.186;2023-02-18T10:01:27;99546.03;;;12.58;77.11
59531;BME280;45349;48.692;8.186;2023-02-18T10:03:58;99556.50;;;12.68;77.30
59531;BME280;45349;48.692;8.186;2023-02-18T10:06:29;99550.75;;;12.45;78.23
59531;BME280;45349;48.692;8.186;2023-02-18T10:09:00;99568.66;;;12.49;77.62
59531;BME280;45349;48.692;8.186;2023-02-18T10:11:30;99574.97;;;12.66;77.41
59531;BME280;45349;48.692;8.186;2023-02-18T10:13:57;99569.59;;;12.58;77.24
59531;BME280;45349;48.692;8.186;2023-02-18T10:16:27;99568.25;;;12.64;77.31
59531;BME280;45349;48.692;8.186;2023-02-18T10:18:56;99559.28;;;12.57;76.88
59531;BME280;45349;48.692;8.186;2023-02-18T10:21:25;99565.06;;;12.70;76.96
59531;BME280;45349;48.692;8.186;2023-02-18T10:23:56;99564.25;;;12.50;77.25
59531;BME280;45349;48.692;8.186;2023-02-18T10:26:26;99558.19;;;12.49;77.63
59531;BME280;45349;48.692;8.186;2023-02-18T10:28:54;99577.63;;;12.57;77.84
59531;BME280;45349;48.692;8.186;2023-02-18T10:31:24;99566.03;;;12.69;77.62
59531;BME280;45349;48.692;8.186;2023-02-18T10:33:58;99531.84;;;12.51;78.16
59531;BME280;45349;48.692;8.186;2023-02-18T10:36:33;99587.25;;;12.56;78.50
59531;BME280;45349;48.692;8.186;2023-02-18T10:39:18;99569.41;;;12.79;77.28
59531;BME280;45349;48.692;8.186;2023-02-18T10:41:53;99555.69;;;13.05;76.31
59531;BME280;45349;48.692;8.186;2023-02-18T10:44:29;99561.50;;;13.09;76.04
59531;BME280;45349;48.692;8.186;2023-02-18T10:47:05;99561.09;;;13.04;76.37
59531;BME280;45349;48.692;8.186;2023-02-18T10:49:54;99554.81;;;13.14;75.50
59531;BME280;45349;48.692;8.186;2023-02-18T10:52:22;99554.03;;;13.04;75.42
59531;BME280;45349;48.692;8.186;2023-02-18T10:54:52;99555.97;;;13.02;76.31
59531;BME280;45349;48.692;8.186;2023-02-18T10:57:24;99547.03;;;12.95;76.17
59531;BME280;45349;48.692;8.186;2023-02-18T11:00:00;99552.72;;;12.80;77.55
59531;BME280;45349;48.692;8.186;2023-02-18T11:02:36;99530.16;;;12.69;77.48
59531;BME280;45349;48.692;8.186;2023-02-18T11:05:15;99547.59;;;12.89;76.76
59531;BME280;45349;48.692;8.186;2023-02-18T11:07:46;99531.19;;;12.96;75.80
59531;BME280;45349;48.692;8.186;2023-02-18T11:10:16;99520.31;;;12.81;77.31
59531;BME280;45349;48.692;8.186;2023-02-18T11:12:47;99520.72;;;12.87;75.75
59531;BME280;45349;48.692;8.186;2023-02-18T11:15:20;99522.41;;;12.78;76.12
59531;BME280;45349;48.692;8.186;2023-02-18T11:17:50;99522.75;;;12.65;76.61
59531;BME280;45349;48.692;8.186;2023-02-18T11:20:28;99516.94;;;12.71;75.84
59531;BME280;45349;48.692;8.186;2023-02-18T11:23:14;99510.16;;;12.68;76.09
59531;BME280;45349;48.692;8.186;2023-02-18T11:25:52;99516.59;;;12.84;75.35
59531;BME280;45349;48.692;8.186;2023-02-18T11:28:32;99514.50;;;12.88;74.13
59531;BME280;45349;48.692;8.186;2023-02-18T11:31:03;99516.84;;;12.91;73.96
59531;BME280;45349;48.692;8.186;2023-02-18T11:33:33;99521.00;;;12.93;73.73
59531;BME280;45349;48.692;8.186;2023-02-18T11:36:04;99502.94;;;12.90;74.04
59531;BME280;45349;48.692;8.186;2023-02-18T11:38:43;99491.19;;;12.94;73.07
59531;BME280;45349;48.692;8.186;2023-02-18T11:41:14;99485.16;;;12.84;73.61
59531;BME280;45349;48.692;8.186;2023-02-18T11:43:45;99489.16;;;13.16;72.46
59531;BME280;45349;48.692;8.186;2023-02-18T11:46:14;99493.75;;;13.32;71.73
59531;BME280;45349;48.692;8.186;2023-02-18T11:48:42;99498.53;;;13.19;71.80
59531;BME280;45349;48.692;8.186;2023-02-18T11:51:15;99479.59;;;13.25;70.99
59531;BME280;45349;48.692;8.186;2023-02-18T11:53:54;99485.03;;;13.32;71.64
59531;BME280;45349;48.692;8.186;2023-02-18T11:56:24;99481.22;;;13.26;71.71
59531;BME280;45349;48.692;8.186;2023-02-18T11:58:53;99491.09;;;13.42;70.46
59531;BME280;45349;48.692;8.186;2023-02-18T12:01:27;99492.75;;;13.43;71.07
59531;BME280;45349;48.692;8.186;2023-02-18T12:03:58;99487.38;;;13.35;70.93
59531;BME280;45349;48.692;8.186;2023-02-18T12:06:31;99494.09;;;13.47;70.46
59531;BME280;45349;48.692;8.186;2023-02-18T12:09:03;99480.56;;;13.52;70.41
59531;BME280;45349;48.692;8.186;2023-02-18T12:11:33;99471.66;;;13.35;71.09
59531;BME280;45349;48.692;8.186;2023-02-18T12:14:08;99485.03;;;13.41;70.78
59531;BME280;45349;48.692;8.186;2023-02-18T12:16:47;99484.63;;;13.36;71.70
59531;BME280;45349;48.692;8.186;2023-02-18T12:19:38;99474.63;;;13.22;71.87
59531;BME280;45349;48.692;8.186;2023-02-18T12:22:15;99481.00;;;13.19;71.41
59531;BME280;45349;48.692;8.186;2023-02-18T12:24:56;99489.91;;;13.26;72.18
59531;BME280;45349;48.692;8.186;2023-02-18T12:27:32;99482.44;;;13.32;71.96
59531;BME280;45349;48.692;8.186;2023-02-18T12:30:24;99485.50;;;13.55;69.50
59531;BME280;45349;48.692;8.186;2023-02-18T12:32:59;99478.53;;;13.36;71.25
59531;BME280;45349;48.692;8.186;2023-02-18T12:35:47;99475.22;;;13.16;72.08
59531;BME280;45349;48.692;8.186;2023-02-18T12:38:33;99471.94;;;13.32;71.46
59531;BME280;45349;48.692;8.186;2023-02-18T12:41:16;99470.84;;;13.34;71.25
59531;BME280;45349;48.692;8.186;2023-02-18T12:43:55;99462.38;;;13.22;71.86
59531;BME280;45349;48.692;8.186;2023-02-18T12:46:37;99462.94;;;13.16;72.15
59531;BME280;45349;48.692;8.186;2023-02-18T12:49:16;99462.28;;;13.32;71.33
59531;BME280;45349;48.692;8.186;2023-02-18T12:51:59;99460.84;;;13.38;71.99
59531;BME280;45349;48.692;8.186;2023-02-18T12:54:39;99456.03;;;13.43;70.60
59531;BME280;45349;48.692;8.186;2023-02-18T12:57:19;99456.28;;;13.50;70.65
59531;BME280;45349;48.692;8.186;2023-02-18T13:00:07;99450.72;;;13.53;69.33
59531;BME280;45349;48.692;8.186;2023-02-18T13:03:08;99456.72;;;13.63;70.49
59531;BME280;45349;48.692;8.186;2023-02-18T13:05:44;99456.06;;;13.61;69.06
59531;BME280;45349;48.692;8.186;2023-02-18T13:08:36;99456.94;;;13.52;69.26
59531;BME280;45349;48.692;8.186;2023-02-18T13:11:21;99447.25;;;13.52;69.36
59531;BME280;45349;48.692;8.186;2023-02-18T13:13:57;99447.56;;;13.49;70.18
59531;BME280;45349;48.692;8.186;2023-02-18T13:16:27;99442.41;;;13.57;68.89
59531;BME280;45349;48.692;8.186;2023-02-18T13:18:59;99432.84;;;13.20;70.69
59531;BME280;45349;48.692;8.186;2023-02-18T13:21:27;99433.25;;;13.43;70.19